Time;durP1;ratioP1;P1;durP2;ratioP2;P2;SDS_P1;SDS_P2;PMS_P1;PMS_P2;Temp;Humidity;BMP_temperature;BMP_pressure;BME280_temperature;BME280_humidity;BME280_pressure;Samples;Min_cycle;Max_cycle;Signal;HPM_P1;HPM_P2
2022/04/17 00:00:18;;;;;;;6.97;3.60;;;5.60;99.90;;;;;;5093625;28;20040;-65
2022/04/17 00:02:45;;;;;;;5.60;3.03;;;5.60;99.90;;;;;;5093662;28;20044;-66
2022/04/17 00:05:12;;;;;;;6.53;2.92;;;5.60;99.90;;;;;;5093558;28;20083;-66
2022/04/17 00:07:40;;;;;;;6.40;3.30;;;5.60;99.90;;;;;;5092722;28;20515;-65
2022/04/17 00:10:11;;;;;;;6.03;3.15;;;5.60;99.90;;;;;;5093256;28;20082;-65
2022/04/17 00:12:39;;;;;;;5.10;3.00;;;5.60;99.90;;;;;;5090896;28;20100;-66
2022/04/17 00:15:10;;;;;;;5.80;3.00;;;5.60;99.90;;;;;;5097684;28;20066;-65
2022/04/17 00:17:44;;;;;;;5.40;2.88;;;5.50;99.90;;;;;;5111159;28;20066;-66
2022/04/17 00:20:13;;;;;;;4.53;2.70;;;5.50;99.90;;;;;;5092696;28;20036;-65
2022/04/17 00:22:41;;;;;;;5.07;2.55;;;5.50;99.90;;;;;;5092330;28;20041;-66
2022/04/17 00:25:09;;;;;;;5.85;2.83;;;5.40;99.90;;;;;;5091565;28;20574;-65
2022/04/17 00:27:39;;;;;;;4.63;2.42;;;5.40;99.90;;;;;;5091894;28;20071;-65
2022/04/17 00:30:07;;;;;;;5.47;2.88;;;5.40;99.90;;;;;;5088388;28;20044;-66
2022/04/17 00:32:36;;;;;;;7.15;2.78;;;5.30;99.90;;;;;;5099841;28;20071;-66
2022/04/17 00:35:05;;;;;;;4.93;2.95;;;5.30;99.90;;;;;;5095700;27;20479;-66
2022/04/17 00:37:32;;;;;;;4.30;2.60;;;5.30;99.90;;;;;;5081823;28;20048;-66
2022/04/17 00:40:00;;;;;;;4.63;2.92;;;5.30;99.90;;;;;;5083996;28;20534;-66
2022/04/17 00:42:27;;;;;;;7.28;3.28;;;5.20;99.90;;;;;;5087404;28;20044;-66
2022/04/17 00:44:54;;;;;;;4.90;3.05;;;5.20;99.90;;;;;;5090312;28;20456;-66
2022/04/17 00:47:22;;;;;;;5.22;2.90;;;5.10;99.90;;;;;;5089921;28;20121;-67
2022/04/17 00:49:49;;;;;;;5.15;3.00;;;5.10;99.90;;;;;;5084734;28;20041;-66
2022/04/17 00:52:20;;;;;;;5.13;2.83;;;5.10;99.90;;;;;;5090930;28;20474;-66
2022/04/17 00:54:48;;;;;;;8.10;3.05;;;5.00;99.90;;;;;;5106196;28;20407;-67
2022/04/17 00:57:16;;;;;;;6.28;3.05;;;5.10;99.90;;;;;;5101892;28;20067;-66
2022/04/17 00:59:46;;;;;;;6.90;3.00;;;5.00;99.90;;;;;;5091955;28;20069;-67
2022/04/17 01:02:15;;;;;;;4.88;2.83;;;5.00;99.90;;;;;;5091202;28;20050;-66
2022/04/17 01:04:44;;;;;;;5.40;2.80;;;5.00;99.90;;;;;;5104633;28;20044;-67
2022/04/17 01:07:13;;;;;;;4.32;2.78;;;5.10;99.90;;;;;;5100575;28;20048;-67
2022/04/17 01:09:41;;;;;;;5.55;3.05;;;5.10;99.90;;;;;;5094574;28;20075;-67
2022/04/17 01:12:09;;;;;;;6.78;3.05;;;5.10;99.90;;;;;;5090080;28;20347;-66
2022/04/17 01:14:38;;;;;;;6.65;3.05;;;5.20;99.90;;;;;;5091352;28;20086;-66
2022/04/17 01:17:07;;;;;;;10.40;5.60;;;5.10;99.90;;;;;;5103108;28;20498;-64
2022/04/17 01:19:39;;;;;;;9.93;3.83;;;5.10;99.90;;;;;;5105023;28;20432;-66
2022/04/17 01:22:09;;;;;;;7.50;3.63;;;5.00;99.90;;;;;;5104015;28;20072;-65
2022/04/17 01:27:24;;;;;;;6.07;3.10;;;5.00;99.90;;;;;;5087770;28;20126;-66
2022/04/17 01:29:53;;;;;;;5.82;3.40;;;5.00;99.90;;;;;;5089244;28;20036;-66
2022/04/17 01:32:21;;;;;;;7.15;3.50;;;5.00;99.90;;;;;;5083558;28;20055;-66
2022/04/17 01:34:49;;;;;;;7.28;3.53;;;4.90;99.90;;;;;;5097253;28;20052;-66
2022/04/17 01:37:20;;;;;;;7.65;3.40;;;4.90;99.90;;;;;;5095952;28;20068;-66
2022/04/17 01:39:47;;;;;;;6.13;3.53;;;4.80;99.90;;;;;;5098452;28;20554;-67
2022/04/17 01:42:16;;;;;;;5.95;3.35;;;4.80;99.90;;;;;;5093736;28;20092;-66
2022/04/17 01:44:44;;;;;;;6.03;3.65;;;4.80;99.90;;;;;;5093875;28;20594;-66
2022/04/17 01:47:11;;;;;;;6.38;3.40;;;4.80;99.90;;;;;;5092347;28;20036;-67
2022/04/17 01:49:39;;;;;;;6.05;3.20;;;4.70;99.90;;;;;;5108574;28;20043;-67
2022/04/17 01:52:08;;;;;;;5.63;3.30;;;4.70;99.90;;;;;;5093610;28;20082;-66
2022/04/17 01:54:35;;;;;;;7.88;3.65;;;4.60;99.90;;;;;;5105848;28;20367;-66
2022/04/17 01:57:03;;;;;;;7.28;3.58;;;4.60;99.90;;;;;;5100338;28;20135;-65
2022/04/17 01:59:30;;;;;;;5.53;3.28;;;4.60;99.90;;;;;;5093109;28;20453;-66
2022/04/17 02:01:58;;;;;;;5.03;3.20;;;4.50;99.90;;;;;;5088131;28;20040;-66
2022/04/17 02:04:27;;;;;;;5.85;3.53;;;4.50;99.90;;;;;;5103864;28;20510;-66
2022/04/17 02:06:54;;;;;;;9.02;3.67;;;4.50;99.90;;;;;;5097677;28;20415;-65
2022/04/17 02:09:22;;;;;;;5.57;3.50;;;4.50;99.90;;;;;;5095952;28;20086;-66
2022/04/17 02:11:49;;;;;;;7.93;3.70;;;4.50;99.90;;;;;;5087535;28;20075;-66
2022/04/17 02:14:17;;;;;;;6.25;3.70;;;4.40;99.90;;;;;;5088749;28;20050;-66
2022/04/17 02:16:44;;;;;;;5.93;3.58;;;4.40;99.90;;;;;;5101425;28;20123;-66
2022/04/17 02:19:12;;;;;;;6.68;3.75;;;4.30;99.90;;;;;;5074971;28;20047;-66
2022/04/17 02:21:39;;;;;;;6.03;3.33;;;4.30;99.90;;;;;;5093860;28;20050;-66
2022/04/17 02:24:06;;;;;;;5.53;3.60;;;4.30;99.90;;;;;;5094797;28;20059;-67
2022/04/17 02:26:34;;;;;;;8.95;3.40;;;4.20;99.90;;;;;;5088081;28;20046;-65
2022/04/17 02:29:02;;;;;;;7.80;3.75;;;4.20;99.90;;;;;;5098798;28;20050;-65
2022/04/17 02:31:30;;;;;;;6.50;3.90;;;4.20;99.90;;;;;;5088417;28;20040;-66
2022/04/17 02:33:59;;;;;;;6.30;3.28;;;4.10;99.90;;;;;;5096069;28;20047;-66
2022/04/17 02:36:26;;;;;;;6.53;3.55;;;4.10;99.90;;;;;;5106299;28;20047;-66
2022/04/17 02:38:55;;;;;;;5.05;3.22;;;4.10;99.90;;;;;;5088409;28;20577;-68
2022/04/17 02:41:22;;;;;;;5.72;3.63;;;4.10;99.90;;;;;;5093867;28;20097;-66
2022/04/17 02:43:50;;;;;;;5.47;3.65;;;4.10;99.90;;;;;;5101135;28;20039;-66
2022/04/17 02:47:42;;;;;;;5.35;3.67;;;4.00;99.90;;;;;;5106272;28;20043;-66
2022/04/17 02:49:05;;;;;;;9.18;3.60;;;4.00;99.90;;;;;;5090774;28;20054;-66
2022/04/17 02:51:33;;;;;;;7.90;3.80;;;4.00;99.90;;;;;;5076701;28;20127;-67
2022/04/17 02:54:00;;;;;;;7.05;4.13;;;4.00;99.90;;;;;;5104198;28;20092;-65
2022/04/17 02:56:28;;;;;;;7.00;4.22;;;3.90;99.90;;;;;;5107186;28;20131;-65
2022/04/17 02:58:55;;;;;;;6.43;4.00;;;3.90;99.90;;;;;;5091916;28;20126;-65
2022/04/17 03:06:58;;;;;;;5.60;3.25;;;3.90;99.90;;;;;;5089984;28;20747;-66
2022/04/17 03:09:25;;;;;;;5.35;3.65;;;3.80;99.90;;;;;;5088458;28;20048;-66
2022/04/17 03:11:52;;;;;;;7.25;3.67;;;3.80;99.90;;;;;;5095743;28;20046;-66
2022/04/17 03:14:20;;;;;;;7.43;3.95;;;3.80;99.90;;;;;;5095635;28;20070;-66
2022/04/17 03:16:47;;;;;;;6.85;3.47;;;3.80;99.90;;;;;;5085057;28;20069;-65
2022/04/17 03:19:15;;;;;;;6.25;3.25;;;3.70;99.90;;;;;;5091460;28;20143;-64
2022/04/17 03:21:42;;;;;;;7.65;3.42;;;3.70;99.90;;;;;;5091254;28;20035;-66
2022/04/17 03:24:10;;;;;;;6.15;3.70;;;3.70;99.90;;;;;;5096734;28;20119;-66
2022/04/17 03:26:41;;;;;;;6.05;3.42;;;3.70;99.90;;;;;;5092370;28;20040;-66
2022/04/17 03:29:08;;;;;;;5.97;3.40;;;3.70;99.90;;;;;;5098382;28;20434;-64
2022/04/17 03:31:36;;;;;;;7.20;4.10;;;3.70;99.90;;;;;;5077700;28;20638;-66
2022/04/17 03:34:06;;;;;;;5.07;3.47;;;3.70;99.90;;;;;;5089228;28;20583;-65
2022/04/17 03:36:39;;;;;;;6.68;3.53;;;3.60;99.90;;;;;;5097802;28;20040;-65
2022/04/17 03:39:07;;;;;;;8.18;3.85;;;3.60;99.90;;;;;;5094996;28;20066;-65
2022/04/17 03:41:35;;;;;;;6.65;3.85;;;3.50;99.90;;;;;;5099401;28;20503;-65
2022/04/17 03:44:04;;;;;;;6.38;3.38;;;3.50;99.90;;;;;;5097228;28;20043;-66
2022/04/17 03:46:33;;;;;;;7.15;3.63;;;3.50;99.90;;;;;;5101504;28;20101;-65
2022/04/17 03:49:00;;;;;;;6.70;4.20;;;3.50;99.90;;;;;;5095682;28;20044;-65
2022/04/17 03:51:28;;;;;;;9.60;4.00;;;3.50;99.90;;;;;;5085276;28;20040;-65
2022/04/17 03:53:55;;;;;;;7.30;4.22;;;3.50;99.90;;;;;;5094178;28;20048;-65
2022/04/17 03:56:23;;;;;;;6.93;3.78;;;3.40;99.90;;;;;;5091649;28;20104;-65
2022/04/17 03:58:50;;;;;;;8.13;3.90;;;3.40;99.90;;;;;;5093081;28;20532;-65
2022/04/17 04:01:18;;;;;;;7.47;3.60;;;3.40;99.90;;;;;;5092249;28;20505;-66
2022/04/17 04:03:46;;;;;;;9.15;3.92;;;3.40;99.90;;;;;;5092420;28;20482;-65
2022/04/17 04:06:13;;;;;;;5.57;3.50;;;3.40;99.90;;;;;;5092190;28;20123;-65
2022/04/17 04:08:41;;;;;;;7.28;4.25;;;3.40;99.90;;;;;;5092534;28;20044;-65
2022/04/17 04:11:08;;;;;;;6.65;3.60;;;3.30;99.90;;;;;;5089663;28;20111;-65
2022/04/17 04:13:35;;;;;;;6.75;4.20;;;3.30;99.90;;;;;;5107623;28;20044;-65
2022/04/17 04:16:03;;;;;;;7.28;3.63;;;3.20;99.90;;;;;;5103699;28;20482;-65
2022/04/17 04:18:30;;;;;;;7.63;3.70;;;3.20;99.90;;;;;;5108340;28;20031;-65
2022/04/17 04:20:57;;;;;;;6.80;3.60;;;3.20;99.90;;;;;;5093752;27;20158;-65
2022/04/17 04:23:25;;;;;;;5.55;3.83;;;3.20;99.90;;;;;;5084726;28;20076;-65
2022/04/17 04:25:52;;;;;;;5.70;4.07;;;3.20;99.90;;;;;;5093538;28;20031;-65
2022/04/17 04:28:38;;;;;;;7.05;3.88;;;3.10;99.90;;;;;;5103038;28;20143;-65
2022/04/17 04:31:12;;;;;;;6.85;4.03;;;3.10;99.90;;;;;;5087669;28;20048;-65
2022/04/17 04:33:42;;;;;;;6.82;4.10;;;3.10;99.90;;;;;;5081543;28;20044;-65
2022/04/17 04:36:13;;;;;;;7.30;3.90;;;3.10;99.90;;;;;;5094324;28;20052;-65
2022/04/17 04:38:41;;;;;;;7.50;4.10;;;3.10;99.90;;;;;;5108039;28;20035;-65
2022/04/17 04:41:09;;;;;;;10.10;4.25;;;3.20;99.90;;;;;;5102796;27;20054;-65
2022/04/17 04:43:36;;;;;;;7.68;3.67;;;3.20;99.90;;;;;;5090119;28;20129;-65
2022/04/17 04:46:06;;;;;;;9.40;3.90;;;3.20;99.90;;;;;;5109917;28;20123;-65
2022/04/17 04:51:26;;;;;;;7.15;3.70;;;3.30;99.90;;;;;;5099986;28;20051;-65
2022/04/17 04:53:55;;;;;;;6.13;4.15;;;3.40;99.90;;;;;;5106708;28;20048;-66
2022/04/17 04:56:23;;;;;;;8.77;4.25;;;3.50;99.90;;;;;;5083530;27;20500;-65
2022/04/17 04:58:50;;;;;;;8.82;3.95;;;3.50;99.90;;;;;;5090258;28;20040;-65
2022/04/17 05:01:17;;;;;;;5.72;3.60;;;3.60;99.90;;;;;;5090164;28;20043;-66
2022/04/17 05:03:46;;;;;;;9.10;4.07;;;3.60;99.90;;;;;;5089349;28;20355;-66
2022/04/17 05:06:13;;;;;;;6.53;3.70;;;3.70;99.90;;;;;;5093497;28;20072;-65
2022/04/17 05:08:41;;;;;;;5.40;3.60;;;3.70;99.90;;;;;;5092875;28;20147;-66
2022/04/17 05:11:08;;;;;;;8.35;3.95;;;3.80;99.90;;;;;;5097880;28;20513;-65
2022/04/17 05:13:35;;;;;;;7.20;3.92;;;3.80;99.90;;;;;;5096214;28;20071;-66
2022/04/17 05:16:03;;;;;;;7.07;3.60;;;3.70;99.90;;;;;;5089850;28;20094;-65
2022/04/17 05:18:31;;;;;;;5.90;3.55;;;3.80;99.90;;;;;;5079490;28;20523;-65
2022/04/17 05:20:58;;;;;;;5.75;3.80;;;3.90;99.90;;;;;;5086675;28;20054;-65
2022/04/17 05:23:27;;;;;;;6.63;3.70;;;3.90;99.90;;;;;;5094337;28;20040;-65
2022/04/17 05:26:00;;;;;;;5.78;3.58;;;4.00;99.90;;;;;;5086173;28;20566;-65
2022/04/17 05:28:30;;;;;;;;;;;4.10;99.90;;;;;;5090614;28;20487;-65
2022/04/17 05:30:58;;;;;;;7.72;3.97;;;4.10;99.90;;;;;;5089893;28;20302;-65
2022/04/17 05:33:26;;;;;;;6.65;3.30;;;4.20;99.90;;;;;;5092237;28;20445;-65
2022/04/17 05:35:54;;;;;;;6.38;4.03;;;4.30;99.90;;;;;;5091187;28;20048;-65
2022/04/17 05:38:21;;;;;;;6.18;3.92;;;4.40;99.90;;;;;;5090107;28;20524;-66
2022/04/17 05:40:51;;;;;;;8.05;3.90;;;4.50;99.90;;;;;;5090575;27;20075;-66
2022/04/17 05:43:20;;;;;;;6.47;4.03;;;4.60;99.90;;;;;;5084721;28;20127;-66
2022/04/17 05:45:50;;;;;;;6.75;4.57;;;4.80;99.90;;;;;;5092520;28;20027;-65
2022/04/17 05:48:18;;;;;;;7.80;3.40;;;4.90;99.90;;;;;;5087310;28;20052;-66
2022/04/17 05:50:45;;;;;;;6.10;3.67;;;4.90;99.90;;;;;;5088857;28;20514;-66
2022/04/17 05:53:12;;;;;;;5.95;3.50;;;5.10;99.90;;;;;;5100485;28;20079;-66
2022/04/17 05:55:40;;;;;;;8.00;3.65;;;5.10;99.90;;;;;;5100888;28;20490;-65
2022/04/17 05:58:07;;;;;;;7.95;3.92;;;5.10;99.90;;;;;;5091130;28;20044;-66
2022/04/17 06:00:36;;;;;;;4.82;3.25;;;5.20;99.90;;;;;;5089055;28;20123;-66
2022/04/17 06:03:05;;;;;;;8.65;3.47;;;5.30;99.90;;;;;;5088811;28;20062;-66
2022/04/17 06:05:32;;;;;;;6.90;4.10;;;5.40;99.90;;;;;;5086684;28;20068;-65
2022/04/17 06:08:00;;;;;;;7.05;3.70;;;5.40;99.90;;;;;;5102400;28;20036;-65
2022/04/17 06:10:27;;;;;;;5.68;3.40;;;5.40;99.90;;;;;;5096368;28;20187;-66
2022/04/17 06:12:54;;;;;;;7.07;3.45;;;5.40;99.90;;;;;;5083317;28;20066;-65
2022/04/17 06:15:22;;;;;;;9.40;3.53;;;5.50;99.90;;;;;;5089419;28;20483;-66
2022/04/17 06:17:49;;;;;;;6.95;3.38;;;5.60;99.90;;;;;;5102119;28;20040;-66
2022/04/17 06:20:16;;;;;;;5.60;3.20;;;5.70;99.90;;;;;;5102951;28;20044;-66
2022/04/17 06:22:44;;;;;;;6.35;3.40;;;5.90;99.90;;;;;;5087819;27;20036;-64
2022/04/17 06:25:15;;;;;;;5.43;3.10;;;5.90;99.90;;;;;;5080381;28;20070;-65
2022/04/17 06:27:47;;;;;;;5.03;3.15;;;6.00;99.90;;;;;;5091073;28;20039;-65
2022/04/17 06:30:19;;;;;;;5.88;3.38;;;6.10;99.90;;;;;;5086021;28;20040;-65
2022/04/17 06:32:47;;;;;;;5.88;3.33;;;6.20;99.90;;;;;;5089291;28;20103;-65
2022/04/17 06:35:16;;;;;;;6.65;3.30;;;6.30;99.90;;;;;;5093263;28;20071;-65
2022/04/17 06:37:55;;;;;;;7.43;3.55;;;6.40;99.90;;;;;;5092088;28;20044;-65
2022/04/17 06:40:33;;;;;;;7.32;4.15;;;6.50;99.90;;;;;;5092812;28;20058;-65
2022/04/17 06:43:05;;;;;;;7.18;4.32;;;6.60;99.90;;;;;;5088192;28;20055;-65
2022/04/17 06:45:34;;;;;;;11.43;5.82;;;6.80;99.90;;;;;;5081396;28;20505;-65
2022/04/17 06:48:21;;;;;;;7.22;4.10;;;6.90;99.90;;;;;;5098259;28;20462;-65
2022/04/17 06:50:51;;;;;;;6.55;3.60;;;7.00;99.90;;;;;;5104541;28;20043;-65
2022/04/17 06:53:19;;;;;;;6.57;3.30;;;7.20;99.90;;;;;;5096992;28;20115;-65
2022/04/17 06:55:48;;;;;;;7.57;3.17;;;7.30;99.90;;;;;;5104587;28;20048;-66
2022/04/17 06:58:17;;;;;;;10.18;5.55;;;7.40;99.90;;;;;;5101035;28;20502;-65
2022/04/17 07:00:45;;;;;;;6.35;3.60;;;7.50;99.90;;;;;;5086206;28;20371;-64
2022/04/17 07:03:16;;;;;;;9.60;5.28;;;7.70;99.90;;;;;;5088459;28;20132;-65
2022/04/17 07:05:44;;;;;;;9.48;5.18;;;7.80;99.90;;;;;;5081142;28;20136;-65
2022/04/17 07:08:11;;;;;;;9.57;4.15;;;7.90;99.90;;;;;;5089216;28;20094;-65
2022/04/17 07:10:40;;;;;;;6.80;4.05;;;8.00;99.90;;;;;;5087726;28;20050;-65
2022/04/17 07:13:11;;;;;;;10.38;4.40;;;8.00;99.90;;;;;;5082231;28;20045;-65
2022/04/17 07:15:38;;;;;;;9.50;4.17;;;8.10;99.90;;;;;;5091316;28;20120;-65
2022/04/17 07:18:06;;;;;;;6.95;3.45;;;8.30;99.90;;;;;;5095154;28;20119;-66
2022/04/17 07:20:35;;;;;;;7.40;4.30;;;8.40;99.90;;;;;;5101326;28;20044;-65
2022/04/17 07:23:02;;;;;;;6.28;3.42;;;8.50;99.90;;;;;;5086058;28;20127;-65
2022/04/17 07:25:30;;;;;;;10.13;2.95;;;8.60;99.90;;;;;;5103105;28;20039;-65
2022/04/17 07:27:57;;;;;;;7.38;3.63;;;8.70;99.90;;;;;;5101086;28;20072;-65
2022/04/17 07:30:29;;;;;;;7.30;3.60;;;8.80;99.90;;;;;;5100246;28;20459;-66
2022/04/17 07:33:01;;;;;;;6.80;3.45;;;8.90;99.90;;;;;;5095286;28;20052;-66
2022/04/17 07:35:29;;;;;;;5.72;3.35;;;9.00;99.90;;;;;;5105532;28;20071;-66
2022/04/17 07:38:05;;;;;;;6.28;3.22;;;9.00;99.90;;;;;;5111476;28;20047;-64
2022/04/17 07:40:34;;;;;;;6.63;3.38;;;9.10;99.90;;;;;;5107126;28;20521;-66
2022/04/17 07:43:03;;;;;;;5.35;3.33;;;9.20;99.90;;;;;;5088382;28;20503;-65
2022/04/17 07:45:32;;;;;;;6.25;3.30;;;9.30;99.90;;;;;;5102001;28;20044;-65
2022/04/17 07:48:01;;;;;;;7.78;3.95;;;9.40;99.90;;;;;;5100785;28;20067;-66
2022/04/17 07:50:31;;;;;;;9.77;5.10;;;9.50;99.90;;;;;;5105793;28;20395;-65
2022/04/17 07:52:59;;;;;;;9.27;3.78;;;9.60;99.90;;;;;;5091825;28;20043;-65
2022/04/17 07:55:27;;;;;;;10.25;4.05;;;9.70;99.90;;;;;;5081910;28;20055;-65
2022/04/17 07:58:12;;;;;;;8.57;4.18;;;9.80;99.90;;;;;;5079906;28;20063;-66
2022/04/17 08:00:45;;;;;;;7.38;3.90;;;9.90;99.90;;;;;;5080956;28;20518;-66
2022/04/17 08:03:24;;;;;;;7.05;3.08;;;10.00;99.90;;;;;;5093826;28;20386;-65
2022/04/17 08:05:52;;;;;;;8.20;3.13;;;10.20;99.90;;;;;;5094504;28;20036;-65
2022/04/17 08:08:20;;;;;;;6.85;2.70;;;10.30;99.90;;;;;;5096874;28;20051;-65
2022/04/17 08:10:47;;;;;;;4.95;2.55;;;10.30;99.90;;;;;;5094740;28;20497;-66
2022/04/17 08:13:16;;;;;;;6.18;3.28;;;10.50;99.90;;;;;;5097280;28;20510;-65
2022/04/17 08:15:44;;;;;;;5.63;3.22;;;10.50;99.90;;;;;;5085065;28;20072;-65
2022/04/17 08:18:11;;;;;;;6.57;3.13;;;10.60;99.90;;;;;;5093026;28;20048;-65
2022/04/17 08:20:38;;;;;;;5.28;3.28;;;10.60;99.90;;;;;;5094274;28;20138;-65
2022/04/17 08:23:06;;;;;;;7.70;3.70;;;10.60;99.90;;;;;;5096129;28;20032;-66
2022/04/17 08:25:33;;;;;;;6.45;3.15;;;10.70;99.90;;;;;;5092318;28;20366;-65
2022/04/17 08:28:02;;;;;;;7.18;3.38;;;10.70;99.90;;;;;;5080250;28;20075;-64
2022/04/17 08:30:31;;;;;;;7.07;3.30;;;10.80;99.90;;;;;;5094067;28;20077;-65
2022/04/17 08:33:03;;;;;;;5.15;2.40;;;10.80;99.90;;;;;;5091774;28;20058;-65
2022/04/17 08:35:31;;;;;;;6.03;2.42;;;10.90;99.90;;;;;;5093231;28;20047;-64
2022/04/17 08:38:03;;;;;;;7.53;3.50;;;11.00;99.90;;;;;;5090332;28;20047;-66
2022/04/17 08:40:31;;;;;;;6.72;3.30;;;11.10;99.90;;;;;;5085096;28;20515;-65
2022/04/17 08:42:59;;;;;;;6.40;2.55;;;11.10;99.90;;;;;;5090628;28;20520;-65
2022/04/17 08:45:27;;;;;;;6.18;3.35;;;11.20;99.90;;;;;;5093113;28;20044;-66
2022/04/17 08:47:56;;;;;;;6.45;3.08;;;11.40;99.90;;;;;;5091590;28;20580;-65
2022/04/17 08:50:23;;;;;;;4.47;2.40;;;11.60;99.90;;;;;;5080501;28;20063;-65
2022/04/17 08:52:53;;;;;;;5.53;3.00;;;11.60;99.90;;;;;;5081241;28;20043;-66
2022/04/17 08:55:20;;;;;;;9.63;4.07;;;11.70;99.90;;;;;;5093947;28;20044;-66
2022/04/17 08:57:48;;;;;;;5.60;3.30;;;11.80;99.90;;;;;;5090632;28;20531;-65
2022/04/17 09:00:17;;;;;;;5.75;2.72;;;11.90;99.90;;;;;;5090711;28;20051;-66
2022/04/17 09:02:46;;;;;;;7.10;3.30;;;11.90;99.90;;;;;;5095650;28;20440;-65
2022/04/17 09:05:17;;;;;;;6.65;2.70;;;12.00;99.90;;;;;;5090064;28;20131;-65
2022/04/17 09:07:45;;;;;;;6.32;2.80;;;12.20;99.90;;;;;;5089416;28;20135;-65
2022/04/17 09:10:30;;;;;;;5.18;2.38;;;12.10;99.90;;;;;;5087420;28;20097;-66
2022/04/17 09:12:59;;;;;;;7.30;2.60;;;12.10;99.90;;;;;;5096836;28;20063;-65
2022/04/17 09:15:30;;;;;;;5.55;2.47;;;12.10;99.90;;;;;;5079360;28;20054;-65
2022/04/17 09:17:58;;;;;;;4.75;2.20;;;12.30;99.90;;;;;;5090199;28;20128;-66
2022/04/17 09:20:26;;;;;;;6.68;2.63;;;12.50;99.90;;;;;;5097068;28;20122;-65
2022/04/17 09:22:58;;;;;;;4.32;2.05;;;12.60;99.90;;;;;;5091326;28;20265;-65
2022/04/17 09:25:26;;;;;;;6.53;2.90;;;12.60;99.90;;;;;;5102223;28;20048;-65
2022/04/17 09:27:54;;;;;;;5.97;2.45;;;12.70;99.90;;;;;;5086108;28;20045;-66
2022/04/17 09:30:33;;;;;;;6.68;3.03;;;12.70;99.90;;;;;;5094441;28;20036;-66
2022/04/17 09:33:05;;;;;;;6.53;2.08;;;12.80;99.90;;;;;;5092842;28;20047;-64
2022/04/17 09:35:34;;;;;;;5.53;1.98;;;12.70;99.90;;;;;;5105963;28;20537;-66
2022/04/17 09:38:06;;;;;;;5.63;1.95;;;12.90;99.90;;;;;;5099247;28;20048;-65
2022/04/17 09:40:36;;;;;;;6.03;2.25;;;13.10;99.80;;;;;;5098081;28;20086;-65
2022/04/17 09:43:15;;;;;;;6.70;2.38;;;13.40;98.90;;;;;;5084016;28;20479;-65
2022/04/17 09:46:00;;;;;;;4.75;2.10;;;13.40;98.60;;;;;;5092780;28;20044;-65
2022/04/17 09:48:38;;;;;;;4.47;2.10;;;13.50;97.80;;;;;;5093010;28;20044;-66
2022/04/17 09:51:25;;;;;;;6.95;2.15;;;13.70;97.30;;;;;;5095820;28;20517;-65
2022/04/17 09:54:06;;;;;;;5.10;2.42;;;13.80;96.50;;;;;;5098573;28;20056;-66
2022/04/17 09:56:40;;;;;;;6.47;3.57;;;13.90;95.30;;;;;;5099497;28;20044;-66
2022/04/17 09:59:24;;;;;;;7.88;2.75;;;14.00;94.60;;;;;;5090400;28;20146;-65
2022/04/17 10:01:53;;;;;;;5.57;2.40;;;14.20;93.90;;;;;;5088610;28;20055;-65
2022/04/17 10:04:22;;;;;;;6.03;2.25;;;14.40;93.50;;;;;;5090577;28;20044;-65
2022/04/17 10:06:55;;;;;;;6.10;2.28;;;14.80;92.70;;;;;;5085703;28;20068;-65
2022/04/17 10:09:22;;;;;;;3.90;2.05;;;15.10;91.70;;;;;;5085051;28;20040;-65
2022/04/17 10:11:51;;;;;;;3.42;1.98;;;15.40;90.80;;;;;;5080194;28;20113;-65
2022/04/17 10:14:19;;;;;;;4.65;2.00;;;15.70;88.60;;;;;;5085143;28;20074;-65
2022/04/17 10:16:48;;;;;;;7.47;2.42;;;16.20;86.00;;;;;;5095048;28;20043;-65
2022/04/17 10:19:18;;;;;;;6.97;2.28;;;16.10;85.10;;;;;;5093705;28;20519;-65
2022/04/17 10:21:46;;;;;;;3.53;1.83;;;16.50;82.90;;;;;;5092391;28;20130;-65
2022/04/17 10:24:16;;;;;;;3.60;2.00;;;16.90;81.80;;;;;;5084779;28;20063;-64
2022/04/17 10:26:54;;;;;;;4.15;2.00;;;17.10;79.70;;;;;;5081691;28;20463;-65
2022/04/17 10:29:41;;;;;;;3.67;2.10;;;17.30;79.60;;;;;;5092588;28;20043;-65
2022/04/17 10:32:49;;;;;;;4.25;2.00;;;17.30;79.20;;;;;;5088451;28;20111;-64
2022/04/17 10:35:26;;;;;;;3.55;1.92;;;17.10;80.60;;;;;;5085873;28;20044;-65
2022/04/17 10:38:23;;;;;;;5.15;2.45;;;17.00;80.10;;;;;;5083446;28;20116;-65
2022/04/17 10:41:01;;;;;;;5.50;2.03;;;17.10;80.80;;;;;;5086846;28;20475;-65
2022/04/17 10:43:53;;;;;;;4.10;1.90;;;16.80;81.10;;;;;;5088611;28;20036;-65
2022/04/17 10:46:21;;;;;;;6.97;2.40;;;16.30;81.40;;;;;;5085836;28;20406;-65
2022/04/17 10:48:55;;;;;;;5.10;2.13;;;16.80;82.80;;;;;;5091413;28;20579;-65
2022/04/17 10:51:26;;;;;;;4.93;2.50;;;17.30;82.80;;;;;;5068714;28;20102;-66
2022/04/17 10:54:10;;;;;;;5.80;2.80;;;16.90;81.40;;;;;;5092700;28;20051;-65
2022/04/17 10:56:38;;;;;;;5.07;2.55;;;16.90;80.60;;;;;;5105700;28;20051;-65
2022/04/17 10:59:16;;;;;;;5.35;2.40;;;16.60;80.90;;;;;;5094291;28;20115;-65
2022/04/17 11:01:43;;;;;;;5.05;2.50;;;16.80;81.60;;;;;;5096394;28;20043;-65
2022/04/17 11:04:24;;;;;;;5.75;2.20;;;17.20;81.00;;;;;;5114429;28;20046;-65
2022/04/17 11:07:14;;;;;;;5.45;1.95;;;17.60;80.00;;;;;;5087920;28;20075;-66
2022/04/17 11:09:46;;;;;;;5.15;2.22;;;17.80;79.60;;;;;;5111365;28;20134;-66
2022/04/17 11:12:29;;;;;;;6.13;1.88;;;17.90;78.70;;;;;;5097401;28;20055;-65
2022/04/17 11:15:02;;;;;;;5.07;2.40;;;18.50;78.20;;;;;;5108035;28;20056;-66
2022/04/17 11:17:30;;;;;;;4.40;2.35;;;18.90;76.20;;;;;;5104390;28;20454;-66
2022/04/17 11:19:59;;;;;;;5.38;2.05;;;19.20;76.30;;;;;;5110836;28;20064;-65
2022/04/17 11:22:34;;;;;;;4.32;2.20;;;19.80;74.20;;;;;;5083807;28;20052;-65
2022/04/17 11:25:06;;;;;;;4.95;1.90;;;19.90;72.50;;;;;;5091296;28;20118;-65
2022/04/17 11:27:50;;;;;;;5.28;1.98;;;19.90;72.90;;;;;;5093112;28;20348;-65
2022/04/17 11:30:37;;;;;;;6.53;2.33;;;20.20;72.30;;;;;;5085720;28;20368;-65
2022/04/17 11:33:06;;;;;;;4.88;2.33;;;20.00;71.80;;;;;;5095907;28;20036;-65
2022/04/17 11:35:35;;;;;;;4.28;2.10;;;20.00;71.90;;;;;;5106659;28;20044;-64
2022/04/17 11:38:07;;;;;;;5.53;2.28;;;19.60;70.80;;;;;;5089975;28;20094;-66
2022/04/17 11:40:35;;;;;;;;;;;19.70;70.30;;;;;;5105846;28;20043;-64
2022/04/17 11:43:11;;;;;;;4.88;1.85;;;20.20;69.10;;;;;;5104314;28;19946;-65
2022/04/17 11:45:41;;;;;;;5.22;2.00;;;20.50;67.30;;;;;;5106249;28;20120;-65
2022/04/17 11:48:10;;;;;;;5.60;1.90;;;20.00;68.50;;;;;;5095259;28;20051;-65
2022/04/17 11:50:38;;;;;;;4.05;1.88;;;20.00;67.90;;;;;;5094011;28;20405;-64
2022/04/17 11:53:12;;;;;;;5.00;1.83;;;20.10;68.60;;;;;;5109663;28;20097;-65
2022/04/17 11:55:42;;;;;;;4.95;2.10;;;20.30;68.30;;;;;;5095356;27;20131;-65
2022/04/17 11:58:11;;;;;;;4.53;1.70;;;20.70;67.50;;;;;;5100757;27;20082;-64
2022/04/17 12:00:40;;;;;;;7.15;2.30;;;21.40;64.90;;;;;;5090023;28;20433;-66
2022/04/17 12:03:09;;;;;;;8.02;2.40;;;21.30;64.70;;;;;;5088296;28;20101;-64
2022/04/17 12:05:37;;;;;;;5.25;1.70;;;20.90;64.60;;;;;;5086723;28;20067;-65
2022/04/17 12:08:09;;;;;;;5.05;2.15;;;21.10;64.60;;;;;;5091774;28;20051;-64
2022/04/17 12:10:42;;;;;;;4.50;1.88;;;21.00;63.60;;;;;;5100363;28;20044;-65
2022/04/17 12:13:14;;;;;;;3.70;1.80;;;20.90;63.50;;;;;;5094707;28;20397;-65
2022/04/17 12:15:42;;;;;;;7.00;2.20;;;21.00;63.20;;;;;;5101015;28;20456;-65
2022/04/17 12:18:10;;;;;;;3.10;1.80;;;20.80;61.40;;;;;;5099497;28;20071;-65
2022/04/17 12:20:38;;;;;;;5.70;2.17;;;21.10;61.90;;;;;;5100679;28;20043;-65
2022/04/17 12:23:06;;;;;;;3.92;1.80;;;21.50;60.40;;;;;;5076913;28;20060;-65
2022/04/17 12:25:34;;;;;;;4.90;1.80;;;21.20;60.10;;;;;;5103829;28;20040;-65
2022/04/17 12:28:01;;;;;;;4.32;2.20;;;21.80;60.00;;;;;;5088608;28;20101;-65
2022/04/17 12:30:29;;;;;;;6.03;2.00;;;22.40;59.40;;;;;;5083417;28;20060;-65
2022/04/17 12:32:59;;;;;;;4.90;1.98;;;22.00;59.50;;;;;;5077878;28;20831;-65
2022/04/17 12:35:29;;;;;;;4.13;1.98;;;22.30;58.40;;;;;;5102992;28;20054;-65
2022/04/17 12:38:07;;;;;;;4.20;1.80;;;21.90;58.80;;;;;;5100504;28;20104;-65
2022/04/17 12:40:44;;;;;;;3.67;1.88;;;21.50;58.80;;;;;;5104532;28;20067;-65
2022/04/17 12:43:20;;;;;;;3.28;1.77;;;21.40;59.00;;;;;;5098736;28;20048;-65
2022/04/17 12:46:00;;;;;;;5.57;2.00;;;22.00;57.80;;;;;;5085955;28;20127;-65
2022/04/17 12:48:35;;;;;;;3.95;1.88;;;22.30;57.30;;;;;;5088937;28;20125;-65
2022/04/17 12:51:09;;;;;;;4.13;2.15;;;22.40;57.10;;;;;;5091910;28;20128;-64
2022/04/17 12:53:41;;;;;;;4.55;2.60;;;22.10;56.70;;;;;;5085031;28;20496;-66
2022/04/17 12:56:11;;;;;;;6.30;3.08;;;21.80;57.00;;;;;;5091882;28;20395;-65
2022/04/17 12:58:57;;;;;;;5.57;2.75;;;22.10;57.80;;;;;;5094065;28;20047;-65
2022/04/17 13:01:26;;;;;;;5.80;2.40;;;22.90;56.60;;;;;;5077928;28;20523;-64
2022/04/17 13:04:22;;;;;;;4.50;2.10;;;23.00;57.00;;;;;;5091137;28;20093;-64
2022/04/17 13:07:06;;;;;;;4.47;2.13;;;23.80;56.60;;;;;;5090167;28;20059;-66
2022/04/17 13:09:33;;;;;;;6.55;2.20;;;24.10;55.70;;;;;;5087760;28;20560;-64
2022/04/17 13:12:00;;;;;;;4.55;2.72;;;24.20;55.10;;;;;;5088699;28;20451;-64
2022/04/17 13:14:29;;;;;;;5.07;2.10;;;24.50;55.30;;;;;;5092444;28;20189;-65
2022/04/17 13:16:58;;;;;;;4.82;2.42;;;25.10;54.40;;;;;;5103281;28;20046;-64
2022/04/17 13:19:27;;;;;;;4.50;2.42;;;25.60;53.90;;;;;;5102357;28;20036;-64